Time;durP1;ratioP1;P1;durP2;ratioP2;P2;SDS_P1;SDS_P2;PMS_P1;PMS_P2;Temp;Humidity;BMP_temperature;BMP_pressure;BME280_temperature;BME280_humidity;BME280_pressure;Samples;Min_cycle;Max_cycle;Signal;HPM_P1;HPM_P2
2023/12/01 00:01:07;;;;;;;30.75;14.10;;;7.90;77.40;;;;;;4977518;28;20030;-65
2023/12/01 00:03:32;;;;;;;28.60;13.98;;;7.90;77.20;;;;;;4977822;28;20054;-65
2023/12/01 00:06:00;;;;;;;27.85;13.52;;;7.90;77.20;;;;;;4977751;28;20050;-66
2023/12/01 00:08:26;;;;;;;27.02;13.30;;;7.90;77.00;;;;;;4977415;28;20027;-66
2023/12/01 00:10:52;;;;;;;27.05;14.70;;;7.90;77.00;;;;;;4977218;28;20089;-63
2023/12/01 00:13:19;;;;;;;25.80;13.07;;;7.90;77.40;;;;;;4977422;28;20026;-64
2023/12/01 00:15:45;;;;;;;25.98;12.98;;;7.90;77.30;;;;;;4960230;28;20077;-64
2023/12/01 00:18:13;;;;;;;25.52;13.15;;;7.90;77.30;;;;;;4977771;28;20027;-64
2023/12/01 00:20:39;;;;;;;27.77;13.38;;;7.90;77.20;;;;;;4977031;28;20026;-64
2023/12/01 00:23:05;;;;;;;27.92;14.63;;;7.90;77.30;;;;;;4977675;28;20049;-64
2023/12/01 00:25:31;;;;;;;27.80;13.70;;;7.90;77.40;;;;;;4977153;28;20023;-64
2023/12/01 00:27:58;;;;;;;24.88;13.48;;;7.90;77.90;;;;;;4977622;28;20384;-64
2023/12/01 00:30:29;;;;;;;29.25;15.48;;;7.90;77.70;;;;;;4977317;28;20034;-64
2023/12/01 00:32:58;;;;;;;28.52;13.95;;;7.90;77.80;;;;;;4976692;28;20101;-64
2023/12/01 00:35:25;;;;;;;24.00;13.02;;;7.90;77.50;;;;;;4977327;28;20082;-64
2023/12/01 00:37:51;;;;;;;22.92;12.68;;;7.90;77.80;;;;;;4977225;28;20019;-64
2023/12/01 00:40:17;;;;;;;22.58;12.60;;;7.90;77.80;;;;;;4977164;28;20033;-64
2023/12/01 00:42:43;;;;;;;27.08;12.88;;;7.90;77.70;;;;;;4976706;28;20050;-64
2023/12/01 00:45:09;;;;;;;29.23;13.95;;;7.90;77.50;;;;;;4976854;28;20065;-63
2023/12/01 00:47:35;;;;;;;27.80;13.95;;;7.90;77.70;;;;;;4977268;28;20050;-64
2023/12/01 00:50:05;;;;;;;30.40;14.80;;;7.90;77.80;;;;;;4977255;28;20463;-64
2023/12/01 00:52:31;;;;;;;28.13;13.40;;;7.90;77.50;;;;;;4976449;28;20030;-64
2023/12/01 00:54:57;;;;;;;25.60;13.77;;;7.90;77.60;;;;;;4976912;28;20487;-64
2023/12/01 00:57:27;;;;;;;27.42;13.55;;;7.90;77.60;;;;;;4959759;28;20031;-64
2023/12/01 00:59:53;;;;;;;29.67;14.93;;;7.90;77.40;;;;;;4977092;28;20027;-64
2023/12/01 01:02:19;;;;;;;23.95;12.70;;;7.90;77.60;;;;;;4976488;28;20030;-64
2023/12/01 01:04:45;;;;;;;26.40;13.18;;;7.90;77.50;;;;;;4976461;28;20081;-64
2023/12/01 01:07:12;;;;;;;24.33;13.30;;;7.90;77.40;;;;;;4977057;28;20027;-64
2023/12/01 01:09:38;;;;;;;24.90;13.68;;;7.90;77.40;;;;;;4959455;28;20038;-64
2023/12/01 01:12:04;;;;;;;23.88;12.88;;;7.90;77.60;;;;;;4976268;28;20055;-64
2023/12/01 01:14:32;;;;;;;24.13;12.45;;;7.90;77.50;;;;;;4959363;28;20459;-64
2023/12/01 01:16:58;;;;;;;28.95;15.15;;;7.90;77.50;;;;;;4976399;28;20054;-64
2023/12/01 01:19:24;;;;;;;26.02;13.05;;;7.90;77.60;;;;;;4976403;28;20344;-64
2023/12/01 01:21:50;;;;;;;26.17;13.20;;;7.90;77.40;;;;;;4959129;28;20448;-64
2023/12/01 01:24:16;;;;;;;24.48;12.82;;;7.90;77.50;;;;;;4959435;28;20030;-64
2023/12/01 01:26:42;;;;;;;23.90;13.20;;;7.90;77.50;;;;;;4976602;28;20019;-64
2023/12/01 01:29:13;;;;;;;28.23;14.35;;;7.90;77.90;;;;;;4976537;28;20023;-64
2023/12/01 01:31:39;;;;;;;26.00;12.63;;;7.90;77.50;;;;;;4976496;28;20031;-64
2023/12/01 01:34:05;;;;;;;24.45;13.35;;;7.90;77.60;;;;;;4976279;28;20359;-64
2023/12/01 01:36:31;;;;;;;25.58;13.77;;;7.90;77.60;;;;;;4976152;28;20114;-64
2023/12/01 01:38:57;;;;;;;21.80;11.27;;;7.90;77.50;;;;;;4959201;28;20022;-64
2023/12/01 01:41:23;;;;;;;24.42;12.82;;;7.90;77.50;;;;;;4976399;28;20061;-64
2023/12/01 01:43:49;;;;;;;27.08;13.90;;;7.90;77.50;;;;;;4976168;28;20078;-64
2023/12/01 01:46:16;;;;;;;26.42;13.57;;;7.90;77.50;;;;;;4960822;28;20026;-64
2023/12/01 01:48:44;;;;;;;24.58;12.43;;;7.90;77.40;;;;;;4980276;28;20073;-63
2023/12/01 01:51:14;;;;;;;28.05;14.13;;;7.90;77.40;;;;;;4979763;28;20054;-64
2023/12/01 01:53:43;;;;;;;28.40;13.90;;;7.90;77.40;;;;;;4980192;28;20027;-64
2023/12/01 01:56:12;;;;;;;24.20;12.30;;;7.90;77.80;;;;;;4979863;28;20126;-64
2023/12/01 01:58:39;;;;;;;28.33;14.60;;;7.90;77.60;;;;;;4979792;28;20027;-64
2023/12/01 02:01:07;;;;;;;23.15;12.15;;;7.90;77.80;;;;;;4979623;28;20027;-64
2023/12/01 02:03:34;;;;;;;29.25;14.98;;;7.90;77.30;;;;;;4979738;28;20105;-64
2023/12/01 02:06:06;;;;;;;28.38;14.13;;;7.90;77.30;;;;;;4979953;28;20069;-64
2023/12/01 02:08:33;;;;;;;27.52;14.13;;;7.90;77.60;;;;;;4962740;28;20027;-64
2023/12/01 02:11:00;;;;;;;26.02;13.10;;;7.80;77.70;;;;;;4979236;28;20031;-64
2023/12/01 02:13:28;;;;;;;25.70;13.57;;;7.90;77.60;;;;;;4979899;28;20037;-64
2023/12/01 02:15:54;;;;;;;27.67;13.82;;;7.90;77.70;;;;;;4979807;28;20035;-64
2023/12/01 02:18:30;;;;;;;24.50;12.68;;;7.80;77.70;;;;;;4962646;28;20046;-64
2023/12/01 02:20:58;;;;;;;23.25;12.25;;;7.80;77.80;;;;;;4979481;28;20436;-65
2023/12/01 02:23:24;;;;;;;26.10;14.07;;;7.80;78.00;;;;;;4962290;28;20363;-63
2023/12/01 02:25:50;;;;;;;22.10;12.35;;;7.80;78.00;;;;;;4962151;28;20030;-66
2023/12/01 02:28:17;;;;;;;24.27;13.02;;;7.80;77.80;;;;;;4979756;28;20034;-63
2023/12/01 02:30:52;;;;;;;24.38;13.10;;;7.80;77.60;;;;;;4979462;28;20322;-63
2023/12/01 02:33:19;;;;;;;21.05;12.15;;;7.80;77.80;;;;;;4979431;28;20424;-63
2023/12/01 02:35:52;;;;;;;22.08;13.43;;;7.70;77.80;;;;;;4978987;28;20037;-63
2023/12/01 02:38:19;;;;;;;21.10;12.38;;;7.70;78.10;;;;;;4962731;28;20421;-64
2023/12/01 02:40:49;;;;;;;21.13;12.95;;;7.70;78.30;;;;;;4962247;28;20059;-64
2023/12/01 02:43:19;;;;;;;18.83;11.82;;;7.70;78.00;;;;;;4979012;28;20061;-64
2023/12/01 02:45:46;;;;;;;19.90;11.75;;;7.60;78.00;;;;;;4978889;28;20428;-64
2023/12/01 02:48:12;;;;;;;17.70;10.45;;;7.60;78.00;;;;;;4979250;28;20022;-64
2023/12/01 02:50:40;;;;;;;17.70;10.95;;;7.70;78.00;;;;;;4978843;28;20027;-63
2023/12/01 02:53:06;;;;;;;19.95;12.05;;;7.70;78.00;;;;;;4978510;28;20098;-64
2023/12/01 02:55:33;;;;;;;20.13;11.20;;;7.60;78.10;;;;;;4978886;28;20086;-64
2023/12/01 02:57:58;;;;;;;21.80;13.48;;;7.70;78.10;;;;;;4961338;28;20369;-64
2023/12/01 03:00:25;;;;;;;20.45;11.80;;;7.70;78.20;;;;;;4979035;28;20077;-64
2023/12/01 03:02:51;;;;;;;19.92;11.07;;;7.60;78.20;;;;;;4978536;28;20050;-64
2023/12/01 03:05:18;;;;;;;20.63;12.27;;;7.70;78.30;;;;;;4979120;28;20026;-64
2023/12/01 03:07:44;;;;;;;19.38;11.23;;;7.60;78.20;;;;;;4978547;28;20499;-64
2023/12/01 03:10:11;;;;;;;21.20;11.95;;;7.70;78.20;;;;;;4978693;28;20110;-64
2023/12/01 03:12:38;;;;;;;21.60;12.40;;;7.70;78.20;;;;;;4978345;28;20376;-64
2023/12/01 03:15:05;;;;;;;20.23;11.70;;;7.70;78.10;;;;;;4978446;28;20027;-64
2023/12/01 03:17:31;;;;;;;21.85;12.57;;;7.70;78.00;;;;;;4961346;28;20461;-66
2023/12/01 03:19:58;;;;;;;20.15;11.63;;;7.70;78.00;;;;;;4978481;28;20177;-64
2023/12/01 03:22:24;;;;;;;20.38;11.65;;;7.70;77.90;;;;;;4978447;28;20456;-64
2023/12/01 03:24:53;;;;;;;20.10;11.57;;;7.70;77.90;;;;;;4945135;28;20027;-63
2023/12/01 03:27:25;;;;;;;18.85;10.55;;;7.70;78.20;;;;;;4978172;28;20101;-64
2023/12/01 03:29:52;;;;;;;18.90;11.30;;;7.70;78.00;;;;;;4978144;28;20034;-64
2023/12/01 03:32:20;;;;;;;17.80;10.60;;;7.70;78.20;;;;;;4978024;28;20054;-64
2023/12/01 03:34:46;;;;;;;20.05;11.18;;;7.70;78.00;;;;;;4978142;28;20443;-64
2023/12/01 03:37:12;;;;;;;21.88;12.65;;;7.80;78.00;;;;;;4978085;28;20085;-63
2023/12/01 03:39:38;;;;;;;22.23;13.60;;;7.80;78.00;;;;;;4978054;28;20058;-63
2023/12/01 03:42:04;;;;;;;22.17;12.90;;;7.80;78.00;;;;;;4977868;28;20073;-63
2023/12/01 03:44:32;;;;;;;22.38;13.10;;;7.90;77.90;;;;;;4977927;28;20033;-65
2023/12/01 03:46:58;;;;;;;20.88;11.43;;;7.80;77.80;;;;;;4978131;28;20023;-64
2023/12/01 03:49:24;;;;;;;19.92;11.80;;;7.90;77.70;;;;;;4978120;28;20502;-64
2023/12/01 03:51:52;;;;;;;21.30;12.15;;;7.90;77.90;;;;;;4977990;28;20090;-64
2023/12/01 03:54:19;;;;;;;21.70;12.20;;;7.90;77.90;;;;;;4977721;28;20329;-64
2023/12/01 03:56:45;;;;;;;21.88;12.20;;;7.80;78.00;;;;;;4977570;28;20041;-64
2023/12/01 03:59:11;;;;;;;20.20;11.15;;;7.90;78.00;;;;;;4978190;28;20073;-64
2023/12/01 04:01:38;;;;;;;21.33;12.52;;;7.90;77.90;;;;;;4977809;28;20022;-64
2023/12/01 04:04:10;;;;;;;22.58;12.30;;;7.90;77.90;;;;;;4978124;28;20031;-64
2023/12/01 04:06:37;;;;;;;23.27;12.35;;;7.90;77.90;;;;;;4977406;28;20046;-64
2023/12/01 04:09:05;;;;;;;20.65;11.50;;;7.90;78.10;;;;;;4976689;28;20022;-64
2023/12/01 04:11:32;;;;;;;20.55;11.68;;;7.90;78.00;;;;;;4977334;28;20055;-64
2023/12/01 04:13:58;;;;;;;20.98;11.88;;;7.90;78.10;;;;;;4977881;28;20034;-64
2023/12/01 04:16:24;;;;;;;21.35;11.38;;;7.90;78.10;;;;;;4944412;28;20352;-64
2023/12/01 04:18:52;;;;;;;18.38;10.30;;;7.90;77.90;;;;;;4977192;28;20498;-64
2023/12/01 04:21:18;;;;;;;20.27;10.80;;;7.90;77.80;;;;;;4944404;28;20019;-64
2023/12/01 04:23:44;;;;;;;14.48;9.07;;;7.90;78.00;;;;;;4977169;28;20112;-64
2023/12/01 04:26:12;;;;;;;16.13;9.43;;;7.90;78.00;;;;;;4960097;28;20325;-64
2023/12/01 04:28:41;;;;;;;16.30;9.48;;;7.90;77.90;;;;;;4976984;28;20034;-64
2023/12/01 04:31:07;;;;;;;14.55;8.43;;;7.90;77.90;;;;;;4960644;28;20435;-66
2023/12/01 04:33:33;;;;;;;19.70;11.38;;;7.90;77.80;;;;;;4977564;28;20042;-64
2023/12/01 04:35:59;;;;;;;16.70;10.57;;;7.90;77.70;;;;;;4960646;28;20031;-64
2023/12/01 04:38:25;;;;;;;16.10;9.20;;;7.90;77.70;;;;;;4960206;28;20423;-64
2023/12/01 04:40:54;;;;;;;13.60;8.25;;;7.90;77.70;;;;;;4976977;28;20444;-64
2023/12/01 04:43:20;;;;;;;12.77;7.43;;;7.90;77.70;;;;;;4976757;28;20031;-64
2023/12/01 04:45:46;;;;;;;13.10;8.32;;;7.90;77.60;;;;;;4976831;28;20026;-64
2023/12/01 04:48:12;;;;;;;11.95;7.80;;;7.90;77.70;;;;;;4976779;28;20105;-64
2023/12/01 04:50:48;;;;;;;12.27;6.97;;;7.90;77.80;;;;;;4977179;28;20137;-64
2023/12/01 04:53:14;;;;;;;13.00;7.22;;;7.90;77.50;;;;;;4976705;28;20027;-64
2023/12/01 04:55:40;;;;;;;14.43;7.13;;;7.90;77.80;;;;;;4960133;28;20027;-64
2023/12/01 04:58:06;;;;;;;14.80;7.20;;;7.90;77.70;;;;;;4976660;28;20360;-64
2023/12/01 05:00:32;;;;;;;11.45;7.45;;;7.90;77.60;;;;;;4959559;28;20023;-64
2023/12/01 05:03:00;;;;;;;12.45;7.43;;;7.90;77.70;;;;;;4976464;28;20030;-64
2023/12/01 05:05:28;;;;;;;14.02;7.63;;;7.90;77.70;;;;;;4976523;28;20106;-64
2023/12/01 05:07:59;;;;;;;14.65;7.88;;;7.90;77.70;;;;;;4959853;28;20023;-64
2023/12/01 05:10:27;;;;;;;12.52;7.68;;;7.90;77.80;;;;;;4976397;28;20180;-64
2023/12/01 05:12:55;;;;;;;12.07;7.28;;;7.90;77.70;;;;;;4976118;28;20057;-64
2023/12/01 05:15:24;;;;;;;13.15;7.82;;;7.90;77.80;;;;;;4959619;28;20422;-64
2023/12/01 05:17:55;;;;;;;15.43;8.40;;;7.90;77.70;;;;;;4976657;28;20109;-64
2023/12/01 05:20:25;;;;;;;13.00;7.85;;;7.90;77.70;;;;;;4959198;28;20460;-64
2023/12/01 05:22:53;;;;;;;14.85;8.10;;;7.90;78.00;;;;;;4976465;28;20325;-64
2023/12/01 05:25:20;;;;;;;12.60;8.07;;;7.90;78.00;;;;;;4976336;28;20019;-64
2023/12/01 05:27:49;;;;;;;13.60;8.27;;;7.90;77.90;;;;;;4960085;28;20429;-64
2023/12/01 05:30:18;;;;;;;12.05;7.28;;;7.90;77.90;;;;;;4976265;28;20057;-64
2023/12/01 05:32:46;;;;;;;13.20;7.55;;;7.90;77.80;;;;;;4976266;28;20027;-64
2023/12/01 05:35:14;;;;;;;13.30;7.40;;;7.90;78.00;;;;;;4959211;28;20034;-64
2023/12/01 05:37:50;;;;;;;13.30;8.25;;;7.90;77.80;;;;;;4959184;28;20043;-64
2023/12/01 05:40:24;;;;;;;14.05;8.05;;;7.90;77.90;;;;;;4976525;28;20027;-64
2023/12/01 05:42:54;;;;;;;16.60;8.95;;;7.90;77.70;;;;;;4976135;28;20035;-64
2023/12/01 05:45:22;;;;;;;16.25;9.35;;;7.90;77.90;;;;;;4976153;28;20026;-64
2023/12/01 05:47:51;;;;;;;13.82;8.27;;;7.90;77.90;;;;;;4976137;28;20069;-64
2023/12/01 05:50:23;;;;;;;16.60;9.27;;;7.90;78.00;;;;;;4975951;28;20031;-64
2023/12/01 05:52:51;;;;;;;15.65;9.20;;;7.90;78.00;;;;;;4976464;28;20387;-64
2023/12/01 05:55:23;;;;;;;15.52;8.63;;;7.90;78.00;;;;;;4976070;28;20034;-64
2023/12/01 05:58:01;;;;;;;15.45;8.77;;;7.90;78.00;;;;;;4976356;28;20119;-64
2023/12/01 06:00:31;;;;;;;15.35;8.68;;;7.90;77.80;;;;;;4975880;28;20038;-64
2023/12/01 06:03:11;;;;;;;16.45;8.63;;;7.90;78.00;;;;;;4976162;28;20058;-64
2023/12/01 06:05:39;;;;;;;16.20;9.52;;;7.90;77.80;;;;;;4976530;28;20019;-64
2023/12/01 06:08:09;;;;;;;15.95;8.68;;;7.90;78.00;;;;;;4975883;28;20085;-64
2023/12/01 06:10:35;;;;;;;16.08;9.27;;;7.90;78.00;;;;;;4976185;28;20179;-64
2023/12/01 06:13:04;;;;;;;17.38;10.05;;;7.90;78.10;;;;;;4975790;28;20142;-64
2023/12/01 06:15:31;;;;;;;15.80;8.88;;;7.90;77.90;;;;;;4976431;28;20073;-64
2023/12/01 06:17:59;;;;;;;13.80;8.85;;;7.90;78.00;;;;;;4976385;28;20038;-64
2023/12/01 06:20:25;;;;;;;14.43;8.18;;;7.90;78.00;;;;;;4976085;28;20035;-64
2023/12/01 06:22:52;;;;;;;14.23;9.27;;;7.90;77.90;;;;;;4958895;28;20054;-64
2023/12/01 06:25:20;;;;;;;16.92;9.85;;;7.90;78.00;;;;;;4975644;28;20110;-64
2023/12/01 06:27:50;;;;;;;15.57;9.85;;;8.00;78.10;;;;;;5205890;23;20543;-62
2023/12/01 06:30:17;;;;;;;19.23;11.48;;;7.90;77.80;;;;;;4956376;29;20032;-62
2023/12/01 06:32:51;;;;;;;17.05;10.63;;;7.90;78.00;;;;;;4958717;28;20042;-62
2023/12/01 06:35:19;;;;;;;15.00;8.68;;;8.00;78.00;;;;;;4960505;29;20020;-62
2023/12/01 06:37:46;;;;;;;16.45;9.93;;;8.00;78.20;;;;;;4959737;29;20475;-62
2023/12/01 06:40:13;;;;;;;16.90;9.90;;;8.00;78.20;;;;;;4959194;28;20034;-62
2023/12/01 06:42:44;;;;;;;15.23;9.18;;;8.00;78.10;;;;;;4980079;28;20408;-62
2023/12/01 06:45:11;;;;;;;16.23;9.50;;;8.00;78.40;;;;;;4979345;28;20098;-62
2023/12/01 06:47:37;;;;;;;16.38;9.30;;;8.00;78.20;;;;;;4979073;28;20023;-62
2023/12/01 06:50:07;;;;;;;15.38;8.77;;;8.00;78.00;;;;;;4978944;28;20042;-62
2023/12/01 06:52:33;;;;;;;15.93;9.55;;;8.00;77.80;;;;;;4978841;28;20039;-62
2023/12/01 06:54:59;;;;;;;16.45;10.05;;;8.00;77.70;;;;;;4961860;28;20452;-62
2023/12/01 06:57:25;;;;;;;17.42;10.18;;;8.00;78.00;;;;;;4978733;28;20031;-62
2023/12/01 06:59:52;;;;;;;17.17;10.55;;;8.00;77.90;;;;;;4978763;28;20027;-62
2023/12/01 07:02:19;;;;;;;19.20;10.55;;;8.00;78.00;;;;;;4978603;28;20031;-62
2023/12/01 07:04:45;;;;;;;17.23;10.38;;;8.00;78.00;;;;;;4961607;28;20069;-62
2023/12/01 07:07:12;;;;;;;16.17;9.70;;;8.00;78.10;;;;;;5216519;23;20598;-65
2023/12/01 07:09:45;;;;;;;16.08;9.60;;;8.00;78.10;;;;;;4978857;28;20031;-64
2023/12/01 07:12:21;;;;;;;20.90;13.13;;;8.00;77.90;;;;;;4978575;28;20033;-65
2023/12/01 07:14:48;;;;;;;28.05;14.07;;;8.10;78.20;;;;;;4978380;28;20034;-65
2023/12/01 07:17:15;;;;;;;20.30;12.30;;;8.00;78.40;;;;;;4961317;28;20029;-65
2023/12/01 07:19:41;;;;;;;17.90;11.40;;;8.10;78.30;;;;;;4978375;28;20062;-64
2023/12/01 07:22:07;;;;;;;21.63;14.55;;;8.10;78.30;;;;;;4978223;28;20082;-65
2023/12/01 07:24:35;;;;;;;17.92;11.18;;;8.10;78.20;;;;;;4978225;28;20065;-64
2023/12/01 07:27:02;;;;;;;18.02;11.77;;;8.10;78.40;;;;;;4978162;28;20336;-65
2023/12/01 07:29:29;;;;;;;18.25;11.40;;;8.10;78.10;;;;;;4978411;28;20110;-64
2023/12/01 07:31:57;;;;;;;19.13;11.45;;;8.10;78.20;;;;;;4978715;28;20059;-64
2023/12/01 07:34:24;;;;;;;16.38;9.85;;;8.10;78.10;;;;;;5282516;23;20522;-67
2023/12/01 07:36:52;;;;;;;18.63;10.15;;;8.10;78.00;;;;;;4978091;28;20023;-69
2023/12/01 07:39:22;;;;;;;16.90;10.38;;;8.10;77.90;;;;;;4978353;28;20052;-68
2023/12/01 07:41:50;;;;;;;17.83;10.27;;;8.10;78.10;;;;;;4977899;28;20031;-68
2023/12/01 07:44:16;;;;;;;17.17;9.70;;;8.10;78.10;;;;;;4976796;28;20030;-68
2023/12/01 07:46:44;;;;;;;18.55;9.95;;;8.10;78.10;;;;;;4977861;28;20053;-68
2023/12/01 07:49:11;;;;;;;15.77;9.52;;;8.10;78.10;;;;;;5275275;23;20067;-67
2023/12/01 07:51:39;;;;;;;19.27;11.00;;;8.10;78.10;;;;;;4977653;28;20066;-67
2023/12/01 07:54:06;;;;;;;16.23;10.13;;;8.20;78.20;;;;;;4977939;28;20441;-66
2023/12/01 07:56:32;;;;;;;18.75;11.30;;;8.20;78.30;;;;;;4977656;28;20069;-66
2023/12/01 07:58:58;;;;;;;20.67;11.48;;;8.20;78.20;;;;;;4960489;28;20049;-66
2023/12/01 08:01:24;;;;;;;21.42;12.27;;;8.20;78.10;;;;;;4977987;28;20424;-66
2023/12/01 08:03:50;;;;;;;25.00;13.15;;;8.20;78.30;;;;;;4977474;28;20070;-66
2023/12/01 08:06:16;;;;;;;21.48;12.40;;;8.20;78.30;;;;;;4977658;28;20031;-66
2023/12/01 08:08:42;;;;;;;19.83;10.93;;;8.20;78.30;;;;;;4977349;28;20022;-66
2023/12/01 08:11:09;;;;;;;18.00;10.90;;;8.20;78.20;;;;;;4977882;28;20094;-66
2023/12/01 08:13:35;;;;;;;19.25;11.15;;;8.20;78.20;;;;;;4977917;28;20459;-66
2023/12/01 08:16:02;;;;;;;19.80;10.88;;;8.20;78.30;;;;;;4977245;28;20042;-66
2023/12/01 08:18:30;;;;;;;18.05;9.95;;;8.30;78.40;;;;;;4977234;28;20046;-66
2023/12/01 08:20:56;;;;;;;17.25;10.10;;;8.20;78.30;;;;;;4977102;28;20432;-66
2023/12/01 08:23:22;;;;;;;16.75;9.73;;;8.30;78.30;;;;;;4977458;28;20030;-66
2023/12/01 08:25:48;;;;;;;15.55;9.70;;;8.30;78.40;;;;;;4977060;28;20027;-66
2023/12/01 08:28:15;;;;;;;14.43;8.93;;;8.30;78.30;;;;;;4976980;28;20022;-66
2023/12/01 08:30:41;;;;;;;15.82;9.88;;;8.30;78.30;;;;;;4977277;28;20019;-66
2023/12/01 08:33:07;;;;;;;15.32;9.35;;;8.40;78.30;;;;;;4977015;28;20031;-66
2023/12/01 08:35:34;;;;;;;17.80;10.07;;;8.40;78.30;;;;;;4976940;28;20115;-66
2023/12/01 08:38:00;;;;;;;14.77;9.77;;;8.40;78.30;;;;;;4977121;28;20026;-66
2023/12/01 08:40:26;;;;;;;15.63;9.05;;;8.40;78.30;;;;;;4976886;28;20452;-66
2023/12/01 08:42:53;;;;;;;14.73;8.52;;;8.40;78.30;;;;;;4976774;28;20023;-66
2023/12/01 08:45:20;;;;;;;16.13;10.00;;;8.40;78.40;;;;;;4977112;28;20111;-66
2023/12/01 08:47:46;;;;;;;17.00;9.88;;;8.40;78.50;;;;;;4976775;28;20030;-66
2023/12/01 08:50:13;;;;;;;16.88;10.15;;;8.40;78.50;;;;;;4976587;28;20095;-66
2023/12/01 08:52:40;;;;;;;14.50;9.10;;;8.40;78.40;;;;;;5227688;23;20188;-68
2023/12/01 08:55:07;;;;;;;15.57;10.02;;;8.40;78.30;;;;;;4941086;29;20098;-69
2023/12/01 08:57:34;;;;;;;13.85;8.77;;;8.40;78.30;;;;;;4957458;29;20201;-68
2023/12/01 09:00:00;;;;;;;15.52;8.85;;;8.50;78.30;;;;;;4957663;29;20027;-68
2023/12/01 09:02:26;;;;;;;16.08;10.13;;;8.50;78.40;;;;;;4957266;29;20357;-68
2023/12/01 09:04:53;;;;;;;17.08;10.10;;;8.50;78.60;;;;;;5207438;23;20019;-69
2023/12/01 09:07:19;;;;;;;17.02;10.13;;;8.50;78.60;;;;;;4956167;29;20122;-69
2023/12/01 09:09:45;;;;;;;15.38;8.85;;;8.50;78.80;;;;;;4956241;29;20179;-68
2023/12/01 09:12:11;;;;;;;15.05;9.57;;;8.50;78.70;;;;;;4956176;29;20030;-68
2023/12/01 09:14:37;;;;;;;17.38;9.82;;;8.60;78.70;;;;;;4957668;29;20031;-68
2023/12/01 09:17:04;;;;;;;15.18;9.35;;;8.60;78.70;;;;;;4957236;29;20019;-69
2023/12/01 09:19:30;;;;;;;14.40;9.15;;;8.60;78.60;;;;;;4957677;29;20027;-69
2023/12/01 09:21:58;;;;;;;16.52;10.60;;;8.60;78.80;;;;;;4957615;29;20035;-69
2023/12/01 09:24:24;;;;;;;16.30;9.98;;;8.60;78.70;;;;;;4976370;28;20219;-68
2023/12/01 09:26:50;;;;;;;14.93;8.68;;;8.60;79.00;;;;;;4976847;28;20030;-69
2023/12/01 09:29:16;;;;;;;15.93;9.70;;;8.60;78.70;;;;;;4976913;28;20033;-69
2023/12/01 09:31:45;;;;;;;16.20;9.45;;;8.60;78.80;;;;;;4976406;28;20090;-68
2023/12/01 09:34:12;;;;;;;16.65;10.25;;;8.60;78.70;;;;;;4976447;28;20031;-68
2023/12/01 09:39:33;;;;;;;20.10;11.95;;;8.70;78.90;;;;;;5160394;23;20070;-67
2023/12/01 09:42:05;;;;;;;17.92;11.20;;;8.70;78.90;;;;;;4976111;28;20034;-68
2023/12/01 09:44:32;;;;;;;16.67;10.35;;;8.80;78.70;;;;;;4976478;28;20031;-67
2023/12/01 09:47:00;;;;;;;15.95;10.90;;;8.80;78.80;;;;;;4976156;28;20106;-67
2023/12/01 09:49:36;;;;;;;15.00;9.52;;;8.80;78.80;;;;;;4976191;28;20030;-70
2023/12/01 09:52:03;;;;;;;19.35;10.77;;;8.80;78.50;;;;;;4976503;28;20026;-68
2023/12/01 09:54:31;;;;;;;19.90;11.38;;;8.80;78.50;;;;;;4976675;28;20344;-70
2023/12/01 09:57:09;;;;;;;18.38;13.02;;;8.90;78.70;;;;;;4976400;28;20023;-67
2023/12/01 09:59:37;;;;;;;15.98;10.30;;;8.90;78.80;;;;;;4976087;28;20101;-68
2023/12/01 10:02:04;;;;;;;15.57;10.35;;;8.90;78.70;;;;;;5532272;23;21328;-68
2023/12/01 10:04:34;;;;;;;14.05;9.15;;;9.00;79.00;;;;;;4955629;28;20043;-67
2023/12/01 10:07:04;;;;;;;16.63;11.30;;;9.00;78.90;;;;;;4957996;28;20098;-67
2023/12/01 10:09:35;;;;;;;11.80;7.18;;;9.10;79.10;;;;;;4960705;29;20342;-68
2023/12/01 10:12:12;;;;;;;12.38;7.85;;;9.10;79.10;;;;;;4960404;29;20058;-68
2023/12/01 10:14:43;;;;;;;9.57;5.65;;;9.20;78.70;;;;;;4960925;29;20023;-68
2023/12/01 10:17:17;;;;;;;13.13;7.65;;;9.20;78.60;;;;;;4960782;29;20408;-68
2023/12/01 10:19:47;;;;;;;9.68;6.18;;;9.20;78.70;;;;;;4959129;29;20070;-68
2023/12/01 10:22:16;;;;;;;12.15;7.68;;;9.20;78.70;;;;;;4960337;29;20110;-68
2023/12/01 10:25:05;;;;;;;12.63;9.20;;;9.30;78.50;;;;;;4960452;29;20020;-67
2023/12/01 10:30:14;;;;;;;11.68;7.20;;;9.30;78.50;;;;;;4938068;29;20058;-68
2023/12/01 10:32:43;;;;;;;10.50;6.97;;;9.30;78.30;;;;;;4940784;29;20039;-70
2023/12/01 10:35:10;;;;;;;10.48;6.60;;;9.30;78.60;;;;;;4940993;29;20042;-68
2023/12/01 10:37:37;;;;;;;9.55;5.90;;;9.40;78.60;;;;;;4940647;29;20057;-68
2023/12/01 10:40:08;;;;;;;8.73;5.80;;;9.30;78.60;;;;;;4940941;29;20042;-68
2023/12/01 10:42:35;;;;;;;10.00;6.38;;;9.40;78.70;;;;;;4940844;29;20040;-68
2023/12/01 10:45:03;;;;;;;11.40;6.70;;;9.40;78.80;;;;;;4939765;29;20460;-67
2023/12/01 10:47:30;;;;;;;9.93;6.68;;;9.40;78.70;;;;;;5600269;23;20021;-70
2023/12/01 10:49:57;;;;;;;8.70;5.40;;;9.40;78.60;;;;;;4957605;29;20048;-72
2023/12/01 10:52:27;;;;;;;8.77;5.78;;;9.40;78.70;;;;;;4959833;29;20027;-72
2023/12/01 10:54:53;;;;;;;8.52;5.18;;;9.40;78.50;;;;;;4960113;28;20054;-73
2023/12/01 10:57:35;;;;;;;8.43;5.32;;;9.50;78.40;;;;;;4958880;29;20023;-72
2023/12/01 11:00:06;;;;;;;8.32;5.50;;;9.50;78.00;;;;;;4959764;29;20039;-73
2023/12/01 11:02:37;;;;;;;14.48;9.35;;;9.50;78.40;;;;;;4942517;29;20031;-72
2023/12/01 11:05:06;;;;;;;12.68;6.90;;;9.50;78.30;;;;;;4959355;29;20055;-73
2023/12/01 11:08:03;;;;;;;11.45;5.78;;;9.60;78.20;;;;;;4959261;29;20520;-72
2023/12/01 11:10:57;;;;;;;15.50;8.77;;;9.60;78.00;;;;;;4959871;29;20031;-72
2023/12/01 11:13:43;;;;;;;11.53;7.33;;;9.50;78.00;;;;;;4959838;29;20483;-71
2023/12/01 11:16:11;;;;;;;10.57;6.13;;;9.50;78.10;;;;;;4942244;29;20396;-71
2023/12/01 11:18:37;;;;;;;10.40;6.38;;;9.60;78.40;;;;;;4959077;28;20035;-72
2023/12/01 11:21:05;;;;;;;12.27;6.07;;;9.60;78.50;;;;;;4959520;28;20381;-71
2023/12/01 11:23:33;;;;;;;10.13;5.60;;;9.70;78.40;;;;;;4958970;29;20106;-71
2023/12/01 11:26:10;;;;;;;8.80;5.82;;;9.70;78.10;;;;;;4959246;29;20023;-73
2023/12/01 11:28:43;;;;;;;10.32;6.32;;;9.60;77.90;;;;;;4959194;29;20031;-71
2023/12/01 11:31:09;;;;;;;9.80;6.38;;;9.70;78.00;;;;;;4958920;29;20042;-72
2023/12/01 11:33:43;;;;;;;10.10;6.70;;;9.70;78.30;;;;;;4959598;28;20034;-72
2023/12/01 11:41:47;;;;;;;13.63;8.02;;;9.70;78.00;;;;;;4978097;28;20039;-73
2023/12/01 11:44:24;;;;;;;13.50;7.32;;;9.70;78.30;;;;;;4978551;28;20023;-72
2023/12/01 11:47:01;;;;;;;10.68;6.78;;;9.70;78.10;;;;;;4977914;28;20050;-72
2023/12/01 11:49:31;;;;;;;11.20;6.38;;;9.70;78.20;;;;;;4977842;28;20023;-72
2023/12/01 11:52:04;;;;;;;11.48;6.60;;;9.70;78.30;;;;;;4960851;28;20559;-72
2023/12/01 11:54:36;;;;;;;16.10;8.70;;;9.70;78.10;;;;;;4978070;28;20101;-72
2023/12/01 11:57:08;;;;;;;12.30;8.38;;;9.80;77.90;;;;;;4977800;28;20034;-74
2023/12/01 11:59:35;;;;;;;11.43;7.25;;;9.80;78.00;;;;;;4978034;28;20131;-72
2023/12/01 12:02:02;;;;;;;8.93;5.55;;;9.80;78.10;;;;;;5572144;23;20055;-72
2023/12/01 12:04:28;;;;;;;10.50;6.43;;;9.80;78.30;;;;;;4958599;29;20027;-73
2023/12/01 12:07:00;;;;;;;17.13;9.50;;;9.80;78.30;;;;;;4958556;29;20106;-73
2023/12/01 12:09:32;;;;;;;13.30;8.15;;;9.80;78.20;;;;;;4958266;29;20139;-73
2023/12/01 12:12:04;;;;;;;10.48;7.45;;;9.80;78.00;;;;;;4958454;29;20031;-72
2023/12/01 12:14:31;;;;;;;12.13;7.97;;;9.80;77.90;;;;;;4958141;29;20432;-71
2023/12/01 12:17:02;;;;;;;13.23;8.43;;;9.80;78.10;;;;;;4958159;29;20023;-72
2023/12/01 12:19:39;;;;;;;12.77;7.80;;;9.80;78.00;;;;;;4941668;29;20039;-71
2023/12/01 12:22:05;;;;;;;13.23;8.43;;;9.80;78.20;;;;;;4957874;29;20042;-73
2023/12/01 12:24:31;;;;;;;14.07;7.75;;;9.80;78.10;;;;;;4958219;29;20027;-73
2023/12/01 12:26:57;;;;;;;12.65;8.63;;;9.70;78.20;;;;;;4957887;29;20027;-73
2023/12/01 12:29:24;;;;;;;12.93;8.10;;;9.80;78.30;;;;;;4957545;28;20495;-73
2023/12/01 12:31:51;;;;;;;12.85;9.00;;;9.80;78.60;;;;;;4957966;29;20062;-72
2023/12/01 12:34:18;;;;;;;16.30;10.07;;;9.80;78.60;;;;;;4957729;29;20083;-71
2023/12/01 12:36:50;;;;;;;13.70;8.65;;;9.80;78.50;;;;;;4957738;29;20035;-73
2023/12/01 12:39:19;;;;;;;16.42;9.63;;;9.80;78.20;;;;;;4957953;29;20023;-71
2023/12/01 12:41:59;;;;;;;14.02;8.73;;;9.80;78.40;;;;;;5233796;23;20093;-71
2023/12/01 12:44:29;;;;;;;13.70;9.20;;;9.80;78.10;;;;;;4977102;28;20030;-71
2023/12/01 12:47:04;;;;;;;13.13;8.45;;;9.80;78.40;;;;;;4977036;28;20403;-71
2023/12/01 12:49:33;;;;;;;13.40;8.20;;;9.80;78.20;;;;;;4976630;28;20031;-73
2023/12/01 12:52:02;;;;;;;11.60;7.57;;;9.80;78.30;;;;;;4976647;28;20019;-71
2023/12/01 12:54:28;;;;;;;13.15;8.35;;;9.90;78.40;;;;;;4960020;28;20041;-73
2023/12/01 12:56:54;;;;;;;11.90;7.63;;;9.90;78.30;;;;;;4976524;28;20450;-71
2023/12/01 12:59:23;;;;;;;11.38;7.22;;;9.90;78.20;;;;;;4977202;28;20074;-71